sensor_id;sensor_type;location;lat;lon;timestamp;P1;durP1;ratioP1;P2;durP2;ratioP2
25721;SDS011;13578;53.450;15.496;2022-07-03T00:02:45;10.50;;;4.90;;
25721;SDS011;13578;53.450;15.496;2022-07-03T00:05:46;8.85;;;4.97;;
25721;SDS011;13578;53.450;15.496;2022-07-03T00:08:46;7.95;;;5.00;;
25721;SDS011;13578;53.450;15.496;2022-07-03T00:11:47;10.82;;;4.95;;
25721;SDS011;13578;53.450;15.496;2022-07-03T00:14:48;8.35;;;4.55;;
25721;SDS011;13578;53.450;15.496;2022-07-03T00:17:51;8.85;;;4.38;;
25721;SDS011;13578;53.450;15.496;2022-07-03T00:21:01;9.30;;;4.30;;
25721;SDS011;13578;53.450;15.496;2022-07-03T00:24:08;8.73;;;4.55;;
25721;SDS011;13578;53.450;15.496;2022-07-03T00:27:14;6.68;;;3.75;;
25721;SDS011;13578;53.450;15.496;2022-07-03T00:30:15;8.02;;;4.35;;
25721;SDS011;13578;53.450;15.496;2022-07-03T00:33:16;8.02;;;3.70;;
25721;SDS011;13578;53.450;15.496;2022-07-03T00:36:18;7.78;;;4.53;;
25721;SDS011;13578;53.450;15.496;2022-07-03T00:39:19;9.65;;;4.20;;
25721;SDS011;13578;53.450;15.496;2022-07-03T00:42:20;7.80;;;3.80;;
25721;SDS011;13578;53.450;15.496;2022-07-03T00:45:21;11.75;;;4.18;;
25721;SDS011;13578;53.450;15.496;2022-07-03T00:48:22;8.20;;;3.60;;
25721;SDS011;13578;53.450;15.496;2022-07-03T00:51:25;7.72;;;3.88;;
25721;SDS011;13578;53.450;15.496;2022-07-03T00:54:27;3.83;;;3.20;;
25721;SDS011;13578;53.450;15.496;2022-07-03T00:57:30;8.13;;;3.80;;
25721;SDS011;13578;53.450;15.496;2022-07-03T01:00:30;4.65;;;3.30;;
25721;SDS011;13578;53.450;15.496;2022-07-03T01:03:35;6.72;;;4.70;;
25721;SDS011;13578;53.450;15.496;2022-07-03T01:06:40;9.25;;;3.83;;
25721;SDS011;13578;53.450;15.496;2022-07-03T01:17:44;10.48;;;3.75;;
25721;SDS011;13578;53.450;15.496;2022-07-03T01:20:36;5.30;;;3.45;;
25721;SDS011;13578;53.450;15.496;2022-07-03T01:23:55;8.45;;;3.63;;
25721;SDS011;13578;53.450;15.496;2022-07-03T01:27:07;10.73;;;3.80;;
25721;SDS011;13578;53.450;15.496;2022-07-03T01:30:10;9.63;;;3.75;;
25721;SDS011;13578;53.450;15.496;2022-07-03T01:33:14;11.40;;;3.70;;
25721;SDS011;13578;53.450;15.496;2022-07-03T01:36:17;10.35;;;4.30;;
25721;SDS011;13578;53.450;15.496;2022-07-03T01:39:21;6.07;;;3.13;;
25721;SDS011;13578;53.450;15.496;2022-07-03T01:42:26;7.25;;;3.50;;
25721;SDS011;13578;53.450;15.496;2022-07-03T01:45:29;7.82;;;3.38;;
25721;SDS011;13578;53.450;15.496;2022-07-03T01:48:32;14.05;;;3.35;;
25721;SDS011;13578;53.450;15.496;2022-07-03T01:51:34;10.68;;;3.22;;
25721;SDS011;13578;53.450;15.496;2022-07-03T01:54:35;11.68;;;3.97;;
25721;SDS011;13578;53.450;15.496;2022-07-03T01:57:43;6.82;;;3.42;;
25721;SDS011;13578;53.450;15.496;2022-07-03T02:00:47;9.45;;;3.08;;
25721;SDS011;13578;53.450;15.496;2022-07-03T02:04:03;10.38;;;3.80;;
25721;SDS011;13578;53.450;15.496;2022-07-03T02:07:13;9.40;;;3.17;;
25721;SDS011;13578;53.450;15.496;2022-07-03T02:10:25;9.52;;;3.08;;
25721;SDS011;13578;53.450;15.496;2022-07-03T02:13:29;8.35;;;3.00;;
25721;SDS011;13578;53.450;15.496;2022-07-03T02:20:13;8.00;;;2.90;;
25721;SDS011;13578;53.450;15.496;2022-07-03T02:23:16;6.95;;;3.28;;
25721;SDS011;13578;53.450;15.496;2022-07-03T02:26:20;9.27;;;3.08;;
25721;SDS011;13578;53.450;15.496;2022-07-03T02:29:31;6.90;;;3.00;;
25721;SDS011;13578;53.450;15.496;2022-07-03T02:32:36;6.18;;;3.20;;
25721;SDS011;13578;53.450;15.496;2022-07-03T02:35:40;7.70;;;3.08;;
25721;SDS011;13578;53.450;15.496;2022-07-03T02:38:41;4.82;;;2.90;;
25721;SDS011;13578;53.450;15.496;2022-07-03T02:41:57;11.77;;;3.28;;
25721;SDS011;13578;53.450;15.496;2022-07-03T02:45:02;12.40;;;3.43;;
25721;SDS011;13578;53.450;15.496;2022-07-03T02:48:08;5.93;;;3.03;;
25721;SDS011;13578;53.450;15.496;2022-07-03T02:51:20;5.10;;;2.60;;
25721;SDS011;13578;53.450;15.496;2022-07-03T02:54:23;9.75;;;2.80;;
25721;SDS011;13578;53.450;15.496;2022-07-03T02:57:24;13.15;;;3.60;;
25721;SDS011;13578;53.450;15.496;2022-07-03T03:00:37;9.85;;;3.30;;
25721;SDS011;13578;53.450;15.496;2022-07-03T03:03:45;23.58;;;3.55;;
25721;SDS011;13578;53.450;15.496;2022-07-03T03:07:13;8.50;;;3.47;;
25721;SDS011;13578;53.450;15.496;2022-07-03T03:10:18;13.30;;;3.80;;
25721;SDS011;13578;53.450;15.496;2022-07-03T03:13:20;13.65;;;3.67;;
25721;SDS011;13578;53.450;15.496;2022-07-03T03:16:24;10.18;;;3.30;;
25721;SDS011;13578;53.450;15.496;2022-07-03T03:19:26;12.77;;;3.28;;
25721;SDS011;13578;53.450;15.496;2022-07-03T03:28:55;15.45;;;3.03;;
25721;SDS011;13578;53.450;15.496;2022-07-03T03:31:55;8.77;;;2.22;;
25721;SDS011;13578;53.450;15.496;2022-07-03T03:34:57;4.60;;;2.17;;
25721;SDS011;13578;53.450;15.496;2022-07-03T03:37:57;4.35;;;2.30;;
25721;SDS011;13578;53.450;15.496;2022-07-03T03:40:58;5.65;;;1.77;;
25721;SDS011;13578;53.450;15.496;2022-07-03T03:43:59;4.93;;;1.98;;
25721;SDS011;13578;53.450;15.496;2022-07-03T03:47:00;4.10;;;2.15;;
25721;SDS011;13578;53.450;15.496;2022-07-03T03:50:01;9.40;;;2.08;;
25721;SDS011;13578;53.450;15.496;2022-07-03T03:53:03;7.32;;;2.08;;
25721;SDS011;13578;53.450;15.496;2022-07-03T03:56:06;7.13;;;2.17;;
25721;SDS011;13578;53.450;15.496;2022-07-03T03:59:09;6.07;;;2.80;;
25721;SDS011;13578;53.450;15.496;2022-07-03T04:02:09;5.03;;;2.50;;
25721;SDS011;13578;53.450;15.496;2022-07-03T04:05:10;4.85;;;1.98;;
25721;SDS011;13578;53.450;15.496;2022-07-03T04:08:11;4.28;;;2.28;;
25721;SDS011;13578;53.450;15.496;2022-07-03T04:11:13;6.10;;;2.00;;
25721;SDS011;13578;53.450;15.496;2022-07-03T04:14:13;2.97;;;1.70;;
25721;SDS011;13578;53.450;15.496;2022-07-03T04:17:14;6.60;;;2.20;;
25721;SDS011;13578;53.450;15.496;2022-07-03T04:20:15;9.35;;;2.03;;
25721;SDS011;13578;53.450;15.496;2022-07-03T04:23:16;5.32;;;2.05;;
25721;SDS011;13578;53.450;15.496;2022-07-03T04:26:17;5.03;;;1.70;;
25721;SDS011;13578;53.450;15.496;2022-07-03T04:29:17;5.10;;;1.85;;
25721;SDS011;13578;53.450;15.496;2022-07-03T04:32:18;5.60;;;1.83;;
25721;SDS011;13578;53.450;15.496;2022-07-03T04:35:18;5.93;;;2.30;;
25721;SDS011;13578;53.450;15.496;2022-07-03T04:38:19;6.88;;;2.28;;
25721;SDS011;13578;53.450;15.496;2022-07-03T04:41:20;3.72;;;1.73;;
25721;SDS011;13578;53.450;15.496;2022-07-03T04:44:20;5.35;;;2.10;;
25721;SDS011;13578;53.450;15.496;2022-07-03T04:47:21;5.78;;;2.00;;
25721;SDS011;13578;53.450;15.496;2022-07-03T04:50:22;6.25;;;2.00;;
25721;SDS011;13578;53.450;15.496;2022-07-03T04:53:22;9.32;;;2.05;;
25721;SDS011;13578;53.450;15.496;2022-07-03T04:56:23;7.22;;;1.77;;
25721;SDS011;13578;53.450;15.496;2022-07-03T04:59:24;8.82;;;2.25;;
25721;SDS011;13578;53.450;15.496;2022-07-03T05:02:24;3.33;;;1.77;;
25721;SDS011;13578;53.450;15.496;2022-07-03T05:05:25;7.65;;;1.65;;
25721;SDS011;13578;53.450;15.496;2022-07-03T05:08:25;6.40;;;2.20;;
25721;SDS011;13578;53.450;15.496;2022-07-03T05:11:26;3.45;;;1.80;;
25721;SDS011;13578;53.450;15.496;2022-07-03T05:14:27;5.18;;;2.00;;
25721;SDS011;13578;53.450;15.496;2022-07-03T05:17:27;6.65;;;1.85;;
25721;SDS011;13578;53.450;15.496;2022-07-03T05:20:28;10.35;;;2.35;;
25721;SDS011;13578;53.450;15.496;2022-07-03T05:23:29;4.75;;;1.88;;
25721;SDS011;13578;53.450;15.496;2022-07-03T05:26:29;9.68;;;2.67;;
25721;SDS011;13578;53.450;15.496;2022-07-03T05:29:30;7.70;;;2.53;;
25721;SDS011;13578;53.450;15.496;2022-07-03T05:32:31;10.05;;;2.08;;
25721;SDS011;13578;53.450;15.496;2022-07-03T05:35:31;6.72;;;1.92;;
25721;SDS011;13578;53.450;15.496;2022-07-03T05:38:32;4.68;;;1.63;;
25721;SDS011;13578;53.450;15.496;2022-07-03T05:41:51;10.00;;;1.95;;
25721;SDS011;13578;53.450;15.496;2022-07-03T05:44:52;4.60;;;1.70;;
25721;SDS011;13578;53.450;15.496;2022-07-03T05:47:53;7.30;;;1.85;;
25721;SDS011;13578;53.450;15.496;2022-07-03T05:50:53;4.60;;;1.63;;
25721;SDS011;13578;53.450;15.496;2022-07-03T05:53:54;6.30;;;1.75;;
25721;SDS011;13578;53.450;15.496;2022-07-03T05:56:55;6.88;;;1.58;;
25721;SDS011;13578;53.450;15.496;2022-07-03T05:59:55;7.20;;;1.80;;
25721;SDS011;13578;53.450;15.496;2022-07-03T06:02:56;5.55;;;1.67;;
25721;SDS011;13578;53.450;15.496;2022-07-03T06:05:58;5.40;;;1.65;;
25721;SDS011;13578;53.450;15.496;2022-07-03T06:08:59;5.15;;;1.40;;
25721;SDS011;13578;53.450;15.496;2022-07-03T06:11:59;4.55;;;1.73;;
25721;SDS011;13578;53.450;15.496;2022-07-03T06:15:00;1.58;;;1.05;;
25721;SDS011;13578;53.450;15.496;2022-07-03T06:18:01;3.75;;;1.48;;
25721;SDS011;13578;53.450;15.496;2022-07-03T06:21:01;5.75;;;1.40;;
25721;SDS011;13578;53.450;15.496;2022-07-03T06:24:02;3.65;;;1.17;;
25721;SDS011;13578;53.450;15.496;2022-07-03T06:27:03;5.05;;;1.42;;
25721;SDS011;13578;53.450;15.496;2022-07-03T06:30:04;4.80;;;1.85;;
25721;SDS011;13578;53.450;15.496;2022-07-03T06:33:05;3.97;;;1.67;;
25721;SDS011;13578;53.450;15.496;2022-07-03T06:36:07;5.40;;;1.48;;
25721;SDS011;13578;53.450;15.496;2022-07-03T06:39:07;7.38;;;1.58;;
25721;SDS011;13578;53.450;15.496;2022-07-03T06:42:08;4.35;;;1.30;;
25721;SDS011;13578;53.450;15.496;2022-07-03T06:45:09;3.83;;;1.27;;
25721;SDS011;13578;53.450;15.496;2022-07-03T06:48:10;6.55;;;1.35;;
25721;SDS011;13578;53.450;15.496;2022-07-03T06:51:10;6.25;;;1.58;;
25721;SDS011;13578;53.450;15.496;2022-07-03T06:54:11;7.25;;;1.60;;
25721;SDS011;13578;53.450;15.496;2022-07-03T06:57:12;5.28;;;1.27;;
25721;SDS011;13578;53.450;15.496;2022-07-03T07:00:13;4.97;;;1.15;;
25721;SDS011;13578;53.450;15.496;2022-07-03T07:03:14;5.88;;;1.00;;
25721;SDS011;13578;53.450;15.496;2022-07-03T07:06:15;5.85;;;1.20;;
25721;SDS011;13578;53.450;15.496;2022-07-03T07:09:15;3.58;;;1.02;;
25721;SDS011;13578;53.450;15.496;2022-07-03T07:12:16;4.70;;;1.55;;
25721;SDS011;13578;53.450;15.496;2022-07-03T07:15:17;7.90;;;1.95;;
25721;SDS011;13578;53.450;15.496;2022-07-03T07:18:18;6.75;;;1.58;;
25721;SDS011;13578;53.450;15.496;2022-07-03T07:21:18;5.63;;;1.40;;
25721;SDS011;13578;53.450;15.496;2022-07-03T07:24:19;5.38;;;0.93;;
25721;SDS011;13578;53.450;15.496;2022-07-03T07:27:20;6.22;;;1.08;;
25721;SDS011;13578;53.450;15.496;2022-07-03T07:30:21;4.35;;;1.27;;
25721;SDS011;13578;53.450;15.496;2022-07-03T07:33:21;3.00;;;0.90;;
25721;SDS011;13578;53.450;15.496;2022-07-03T07:36:22;5.47;;;1.02;;
25721;SDS011;13578;53.450;15.496;2022-07-03T07:39:23;2.58;;;0.90;;
25721;SDS011;13578;53.450;15.496;2022-07-03T07:42:24;4.47;;;1.15;;
25721;SDS011;13578;53.450;15.496;2022-07-03T07:45:24;7.05;;;0.60;;
25721;SDS011;13578;53.450;15.496;2022-07-03T07:48:25;2.20;;;0.70;;
25721;SDS011;13578;53.450;15.496;2022-07-03T07:51:25;2.08;;;0.82;;
25721;SDS011;13578;53.450;15.496;2022-07-03T07:54:26;3.13;;;0.75;;
25721;SDS011;13578;53.450;15.496;2022-07-03T07:57:34;9.07;;;1.30;;
25721;SDS011;13578;53.450;15.496;2022-07-03T08:00:36;1.67;;;0.50;;
25721;SDS011;13578;53.450;15.496;2022-07-03T08:03:36;4.07;;;0.88;;
25721;SDS011;13578;53.450;15.496;2022-07-03T08:06:56;5.07;;;0.88;;
25721;SDS011;13578;53.450;15.496;2022-07-03T08:09:56;2.95;;;0.68;;
25721;SDS011;13578;53.450;15.496;2022-07-03T08:12:57;1.85;;;0.50;;
25721;SDS011;13578;53.450;15.496;2022-07-03T08:15:58;3.45;;;0.85;;
25721;SDS011;13578;53.450;15.496;2022-07-03T08:18:59;3.72;;;0.60;;
25721;SDS011;13578;53.450;15.496;2022-07-03T08:21:59;5.45;;;0.60;;
25721;SDS011;13578;53.450;15.496;2022-07-03T08:25:01;4.10;;;0.73;;
25721;SDS011;13578;53.450;15.496;2022-07-03T08:28:02;5.85;;;1.10;;
25721;SDS011;13578;53.450;15.496;2022-07-03T08:31:02;3.25;;;0.65;;
25721;SDS011;13578;53.450;15.496;2022-07-03T08:34:03;3.80;;;0.85;;
25721;SDS011;13578;53.450;15.496;2022-07-03T08:37:04;5.05;;;1.13;;
25721;SDS011;13578;53.450;15.496;2022-07-03T08:40:04;5.07;;;0.80;;
25721;SDS011;13578;53.450;15.496;2022-07-03T08:43:06;7.35;;;0.68;;
25721;SDS011;13578;53.450;15.496;2022-07-03T08:46:07;4.75;;;0.70;;
25721;SDS011;13578;53.450;15.496;2022-07-03T08:49:11;6.80;;;0.80;;
25721;SDS011;13578;53.450;15.496;2022-07-03T08:52:12;2.08;;;0.63;;
25721;SDS011;13578;53.450;15.496;2022-07-03T08:55:13;4.43;;;0.88;;
25721;SDS011;13578;53.450;15.496;2022-07-03T08:58:15;3.08;;;1.10;;
25721;SDS011;13578;53.450;15.496;2022-07-03T09:01:19;5.40;;;0.95;;
25721;SDS011;13578;53.450;15.496;2022-07-03T09:04:21;2.47;;;0.68;;
25721;SDS011;13578;53.450;15.496;2022-07-03T09:07:22;5.03;;;0.80;;
25721;SDS011;13578;53.450;15.496;2022-07-03T09:10:24;2.15;;;0.70;;
25721;SDS011;13578;53.450;15.496;2022-07-03T09:13:24;5.07;;;0.40;;
25721;SDS011;13578;53.450;15.496;2022-07-03T09:16:25;4.47;;;0.85;;
25721;SDS011;13578;53.450;15.496;2022-07-03T09:19:38;4.53;;;0.70;;
25721;SDS011;13578;53.450;15.496;2022-07-03T09:22:41;2.88;;;0.52;;
25721;SDS011;13578;53.450;15.496;2022-07-03T09:25:58;3.72;;;1.30;;
25721;SDS011;13578;53.450;15.496;2022-07-03T09:29:00;4.57;;;0.82;;
25721;SDS011;13578;53.450;15.496;2022-07-03T09:32:01;3.15;;;0.70;;
25721;SDS011;13578;53.450;15.496;2022-07-03T09:35:35;1.70;;;0.70;;
25721;SDS011;13578;53.450;15.496;2022-07-03T09:38:29;4.18;;;0.90;;
25721;SDS011;13578;53.450;15.496;2022-07-03T09:41:30;5.60;;;1.00;;
25721;SDS011;13578;53.450;15.496;2022-07-03T09:44:50;1.98;;;0.50;;
25721;SDS011;13578;53.450;15.496;2022-07-03T09:47:54;2.25;;;0.70;;
25721;SDS011;13578;53.450;15.496;2022-07-03T09:51:07;4.68;;;0.68;;
25721;SDS011;13578;53.450;15.496;2022-07-03T09:54:20;3.92;;;0.65;;
25721;SDS011;13578;53.450;15.496;2022-07-03T09:57:22;1.35;;;0.30;;
25721;SDS011;13578;53.450;15.496;2022-07-03T10:00:24;2.10;;;0.68;;
25721;SDS011;13578;53.450;15.496;2022-07-03T10:03:25;3.38;;;0.80;;
25721;SDS011;13578;53.450;15.496;2022-07-03T10:06:26;5.07;;;0.73;;
25721;SDS011;13578;53.450;15.496;2022-07-03T10:09:27;3.42;;;0.90;;
25721;SDS011;13578;53.450;15.496;2022-07-03T10:12:29;3.45;;;0.52;;
25721;SDS011;13578;53.450;15.496;2022-07-03T10:15:31;4.03;;;0.57;;
25721;SDS011;13578;53.450;15.496;2022-07-03T10:18:36;6.88;;;0.50;;
25721;SDS011;13578;53.450;15.496;2022-07-03T10:21:38;0.98;;;0.40;;
25721;SDS011;13578;53.450;15.496;2022-07-03T10:24:39;2.22;;;0.52;;
25721;SDS011;13578;53.450;15.496;2022-07-03T10:27:42;2.17;;;0.70;;
25721;SDS011;13578;53.450;15.496;2022-07-03T10:30:47;6.15;;;0.75;;
25721;SDS011;13578;53.450;15.496;2022-07-03T10:33:48;5.85;;;0.73;;
25721;SDS011;13578;53.450;15.496;2022-07-03T10:36:59;4.32;;;0.70;;
25721;SDS011;13578;53.450;15.496;2022-07-03T10:40:12;2.90;;;0.60;;
25721;SDS011;13578;53.450;15.496;2022-07-03T10:43:44;4.35;;;0.68;;
25721;SDS011;13578;53.450;15.496;2022-07-03T10:47:05;5.07;;;0.85;;
25721;SDS011;13578;53.450;15.496;2022-07-03T10:50:09;2.45;;;0.40;;
25721;SDS011;13578;53.450;15.496;2022-07-03T10:53:21;3.13;;;1.10;;
25721;SDS011;13578;53.450;15.496;2022-07-03T10:56:22;2.92;;;0.70;;
25721;SDS011;13578;53.450;15.496;2022-07-03T11:02:47;3.03;;;0.80;;
25721;SDS011;13578;53.450;15.496;2022-07-03T11:05:50;2.65;;;0.63;;
25721;SDS011;13578;53.450;15.496;2022-07-03T11:09:03;9.10;;;2.90;;
25721;SDS011;13578;53.450;15.496;2022-07-03T11:12:04;6.20;;;2.58;;
25721;SDS011;13578;53.450;15.496;2022-07-03T11:18:32;3.33;;;1.42;;
25721;SDS011;13578;53.450;15.496;2022-07-03T11:21:33;5.63;;;1.52;;
25721;SDS011;13578;53.450;15.496;2022-07-03T11:24:44;4.45;;;1.80;;
25721;SDS011;13578;53.450;15.496;2022-07-03T11:27:45;4.18;;;1.65;;
25721;SDS011;13578;53.450;15.496;2022-07-03T11:34:19;9.77;;;1.73;;
25721;SDS011;13578;53.450;15.496;2022-07-03T11:37:21;2.80;;;0.77;;
25721;SDS011;13578;53.450;15.496;2022-07-03T11:40:24;3.30;;;0.65;;
25721;SDS011;13578;53.450;15.496;2022-07-03T11:46:29;3.25;;;0.70;;
25721;SDS011;13578;53.450;15.496;2022-07-03T11:49:34;4.90;;;1.00;;
25721;SDS011;13578;53.450;15.496;2022-07-03T11:52:35;4.38;;;0.50;;
25721;SDS011;13578;53.450;15.496;2022-07-03T11:55:45;4.15;;;0.63;;
25721;SDS011;13578;53.450;15.496;2022-07-03T11:58:47;7.72;;;1.00;;
25721;SDS011;13578;53.450;15.496;2022-07-03T12:04:52;5.85;;;0.47;;
25721;SDS011;13578;53.450;15.496;2022-07-03T12:08:05;4.65;;;0.60;;
25721;SDS011;13578;53.450;15.496;2022-07-03T12:11:07;3.78;;;0.68;;
25721;SDS011;13578;53.450;15.496;2022-07-03T12:14:08;4.80;;;0.50;;
25721;SDS011;13578;53.450;15.496;2022-07-03T12:17:13;2.67;;;0.77;;
25721;SDS011;13578;53.450;15.496;2022-07-03T12:20:15;2.25;;;0.50;;
25721;SDS011;13578;53.450;15.496;2022-07-03T12:23:17;2.13;;;0.47;;
25721;SDS011;13578;53.450;15.496;2022-07-03T12:26:31;4.35;;;0.65;;
25721;SDS011;13578;53.450;15.496;2022-07-03T12:29:35;1.55;;;0.35;;
25721;SDS011;13578;53.450;15.496;2022-07-03T12:32:37;3.65;;;0.60;;
25721;SDS011;13578;53.450;15.496;2022-07-03T12:35:38;2.03;;;0.50;;
25721;SDS011;13578;53.450;15.496;2022-07-03T12:38:39;4.78;;;0.40;;
25721;SDS011;13578;53.450;15.496;2022-07-03T12:41:40;1.70;;;0.32;;
25721;SDS011;13578;53.450;15.496;2022-07-03T12:44:41;1.65;;;0.50;;
25721;SDS011;13578;53.450;15.496;2022-07-03T12:47:42;2.80;;;0.40;;
25721;SDS011;13578;53.450;15.496;2022-07-03T12:50:47;2.15;;;0.40;;
25721;SDS011;13578;53.450;15.496;2022-07-03T12:53:54;2.83;;;0.35;;
25721;SDS011;13578;53.450;15.496;2022-07-03T12:57:06;2.50;;;0.60;;
25721;SDS011;13578;53.450;15.496;2022-07-03T13:00:26;1.92;;;0.30;;
25721;SDS011;13578;53.450;15.496;2022-07-03T13:03:30;1.85;;;0.30;;
25721;SDS011;13578;53.450;15.496;2022-07-03T13:06:34;1.83;;;0.40;;
25721;SDS011;13578;53.450;15.496;2022-07-03T13:09:36;3.15;;;0.45;;
25721;SDS011;13578;53.450;15.496;2022-07-03T13:16:22;2.65;;;0.45;;
25721;SDS011;13578;53.450;15.496;2022-07-03T13:19:24;5.65;;;0.63;;
25721;SDS011;13578;53.450;15.496;2022-07-03T13:22:26;4.15;;;0.40;;
25721;SDS011;13578;53.450;15.496;2022-07-03T13:25:27;3.67;;;0.40;;
25721;SDS011;13578;53.450;15.496;2022-07-03T13:28:29;2.15;;;0.40;;
25721;SDS011;13578;53.450;15.496;2022-07-03T13:31:29;13.25;;;0.50;;
25721;SDS011;13578;53.450;15.496;2022-07-03T13:34:30;2.47;;;0.47;;
25721;SDS011;13578;53.450;15.496;2022-07-03T13:37:31;3.22;;;0.40;;
25721;SDS011;13578;53.450;15.496;2022-07-03T13:40:32;1.92;;;0.38;;
25721;SDS011;13578;53.450;15.496;2022-07-03T13:43:35;1.83;;;0.50;;
25721;SDS011;13578;53.450;15.496;2022-07-03T13:46:35;1.25;;;0.20;;
25721;SDS011;13578;53.450;15.496;2022-07-03T13:49:36;4.43;;;0.50;;
25721;SDS011;13578;53.450;15.496;2022-07-03T13:52:37;2.58;;;0.47;;
25721;SDS011;13578;53.450;15.496;2022-07-03T13:55:37;0.75;;;0.20;;
25721;SDS011;13578;53.450;15.496;2022-07-03T13:58:40;3.72;;;0.40;;
25721;SDS011;13578;53.450;15.496;2022-07-03T14:01:41;5.05;;;0.60;;
25721;SDS011;13578;53.450;15.496;2022-07-03T14:04:42;3.40;;;0.70;;
25721;SDS011;13578;53.450;15.496;2022-07-03T14:07:43;5.95;;;0.68;;
25721;SDS011;13578;53.450;15.496;2022-07-03T14:10:44;4.10;;;0.68;;
25721;SDS011;13578;53.450;15.496;2022-07-03T14:13:45;2.05;;;0.50;;
25721;SDS011;13578;53.450;15.496;2022-07-03T14:16:45;4.20;;;0.40;;
25721;SDS011;13578;53.450;15.496;2022-07-03T14:19:46;4.15;;;0.68;;
25721;SDS011;13578;53.450;15.496;2022-07-03T14:22:47;6.90;;;0.52;;
25721;SDS011;13578;53.450;15.496;2022-07-03T14:25:47;3.00;;;0.60;;
25721;SDS011;13578;53.450;15.496;2022-07-03T14:28:48;2.10;;;0.60;;
25721;SDS011;13578;53.450;15.496;2022-07-03T14:32:07;2.15;;;0.30;;
25721;SDS011;13578;53.450;15.496;2022-07-03T14:35:26;4.70;;;0.38;;
25721;SDS011;13578;53.450;15.496;2022-07-03T14:38:27;2.10;;;0.40;;
25721;SDS011;13578;53.450;15.496;2022-07-03T14:41:27;3.70;;;0.65;;
25721;SDS011;13578;53.450;15.496;2022-07-03T14:44:28;3.80;;;0.32;;
25721;SDS011;13578;53.450;15.496;2022-07-03T14:47:30;4.53;;;0.28;;
25721;SDS011;13578;53.450;15.496;2022-07-03T14:50:31;4.20;;;0.45;;
25721;SDS011;13578;53.450;15.496;2022-07-03T14:53:31;1.67;;;0.30;;
25721;SDS011;13578;53.450;15.496;2022-07-03T14:56:32;2.63;;;0.50;;
25721;SDS011;13578;53.450;15.496;2022-07-03T14:59:44;4.95;;;0.35;;
25721;SDS011;13578;53.450;15.496;2022-07-03T15:06:09;3.05;;;0.35;;
25721;SDS011;13578;53.450;15.496;2022-07-03T15:09:17;2.08;;;0.38;;
25721;SDS011;13578;53.450;15.496;2022-07-03T15:12:28;3.85;;;0.50;;
25721;SDS011;13578;53.450;15.496;2022-07-03T15:15:31;1.48;;;0.28;;
25721;SDS011;13578;53.450;15.496;2022-07-03T15:18:32;2.33;;;0.30;;
25721;SDS011;13578;53.450;15.496;2022-07-03T15:21:34;1.60;;;0.20;;
25721;SDS011;13578;53.450;15.496;2022-07-03T15:24:37;8.70;;;1.60;;
25721;SDS011;13578;53.450;15.496;2022-07-03T15:27:38;1.70;;;0.22;;
25721;SDS011;13578;53.450;15.496;2022-07-03T15:30:50;5.55;;;0.43;;
25721;SDS011;13578;53.450;15.496;2022-07-03T15:33:54;3.30;;;0.43;;
25721;SDS011;13578;53.450;15.496;2022-07-03T15:40:24;1.00;;;0.20;;
25721;SDS011;13578;53.450;15.496;2022-07-03T15:43:37;4.35;;;0.40;;
25721;SDS011;13578;53.450;15.496;2022-07-03T15:46:49;1.85;;;0.30;;
25721;SDS011;13578;53.450;15.496;2022-07-03T15:50:03;2.80;;;0.28;;
25721;SDS011;13578;53.450;15.496;2022-07-03T15:53:04;1.33;;;0.30;;
25721;SDS011;13578;53.450;15.496;2022-07-03T15:56:10;1.95;;;0.20;;
25721;SDS011;13578;53.450;15.496;2022-07-03T15:59:13;1.63;;;0.28;;
25721;SDS011;13578;53.450;15.496;2022-07-03T16:02:21;2.65;;;0.43;;
25721;SDS011;13578;53.450;15.496;2022-07-03T16:05:35;3.90;;;0.43;;
25721;SDS011;13578;53.450;15.496;2022-07-03T16:08:37;4.72;;;0.47;;
25721;SDS011;13578;53.450;15.496;2022-07-03T16:11:42;3.35;;;0.20;;
25721;SDS011;13578;53.450;15.496;2022-07-03T16:14:44;1.67;;;0.30;;
25721;SDS011;13578;53.450;15.496;2022-07-03T16:17:48;3.13;;;0.40;;
25721;SDS011;13578;53.450;15.496;2022-07-03T16:20:54;2.95;;;0.32;;
25721;SDS011;13578;53.450;15.496;2022-07-03T16:23:55;3.05;;;0.30;;
25721;SDS011;13578;53.450;15.496;2022-07-03T16:26:57;3.35;;;0.40;;
25721;SDS011;13578;53.450;15.496;2022-07-03T16:29:58;10.52;;;0.50;;
25721;SDS011;13578;53.450;15.496;2022-07-03T16:32:59;5.88;;;0.57;;
25721;SDS011;13578;53.450;15.496;2022-07-03T16:36:04;3.78;;;0.40;;
25721;SDS011;13578;53.450;15.496;2022-07-03T16:39:11;3.15;;;0.63;;
25721;SDS011;13578;53.450;15.496;2022-07-03T16:42:44;5.53;;;0.22;;
25721;SDS011;13578;53.450;15.496;2022-07-03T16:45:47;1.50;;;0.30;;
25721;SDS011;13578;53.450;15.496;2022-07-03T16:48:53;2.40;;;0.60;;
25721;SDS011;13578;53.450;15.496;2022-07-03T16:51:56;1.83;;;0.20;;
25721;SDS011;13578;53.450;15.496;2022-07-03T16:55:03;1.20;;;0.28;;
25721;SDS011;13578;53.450;15.496;2022-07-03T16:58:05;2.38;;;0.52;;
25721;SDS011;13578;53.450;15.496;2022-07-03T17:01:06;1.10;;;0.28;;
25721;SDS011;13578;53.450;15.496;2022-07-03T17:04:10;2.58;;;0.25;;
25721;SDS011;13578;53.450;15.496;2022-07-03T17:07:12;3.30;;;0.30;;
25721;SDS011;13578;53.450;15.496;2022-07-03T17:10:16;2.05;;;0.30;;
25721;SDS011;13578;53.450;15.496;2022-07-03T17:13:17;0.90;;;0.10;;
25721;SDS011;13578;53.450;15.496;2022-07-03T17:16:18;4.22;;;0.30;;
25721;SDS011;13578;53.450;15.496;2022-07-03T17:19:22;1.75;;;0.30;;
25721;SDS011;13578;53.450;15.496;2022-07-03T17:22:26;1.40;;;0.40;;
25721;SDS011;13578;53.450;15.496;2022-07-03T17:25:29;1.25;;;0.20;;
25721;SDS011;13578;53.450;15.496;2022-07-03T17:29:01;0.88;;;0.20;;
25721;SDS011;13578;53.450;15.496;2022-07-03T17:32:02;3.50;;;0.47;;
25721;SDS011;13578;53.450;15.496;2022-07-03T17:35:07;1.90;;;0.30;;
25721;SDS011;13578;53.450;15.496;2022-07-03T17:38:14;1.60;;;0.30;;
25721;SDS011;13578;53.450;15.496;2022-07-03T17:41:23;2.03;;;0.30;;
25721;SDS011;13578;53.450;15.496;2022-07-03T17:44:25;0.98;;;0.20;;
25721;SDS011;13578;53.450;15.496;2022-07-03T17:47:28;1.25;;;0.80;;
25721;SDS011;13578;53.450;15.496;2022-07-03T17:50:32;1.25;;;0.40;;
25721;SDS011;13578;53.450;15.496;2022-07-03T17:53:34;3.83;;;0.40;;
25721;SDS011;13578;53.450;15.496;2022-07-03T17:56:35;1.30;;;0.60;;
25721;SDS011;13578;53.450;15.496;2022-07-03T17:59:38;2.10;;;0.50;;
25721;SDS011;13578;53.450;15.496;2022-07-03T18:02:40;5.55;;;1.20;;
25721;SDS011;13578;53.450;15.496;2022-07-03T18:05:46;3.40;;;0.45;;
25721;SDS011;13578;53.450;15.496;2022-07-03T18:08:59;1.23;;;0.35;;
25721;SDS011;13578;53.450;15.496;2022-07-03T18:12:03;1.77;;;0.40;;
25721;SDS011;13578;53.450;15.496;2022-07-03T18:15:17;2.97;;;0.60;;
25721;SDS011;13578;53.450;15.496;2022-07-03T18:18:34;4.43;;;0.50;;
25721;SDS011;13578;53.450;15.496;2022-07-03T18:21:36;5.40;;;0.50;;
25721;SDS011;13578;53.450;15.496;2022-07-03T18:24:41;5.38;;;0.70;;
25721;SDS011;13578;53.450;15.496;2022-07-03T18:27:43;1.77;;;0.40;;
25721;SDS011;13578;53.450;15.496;2022-07-03T18:30:47;3.88;;;0.40;;
25721;SDS011;13578;53.450;15.496;2022-07-03T18:33:49;2.30;;;0.47;;
25721;SDS011;13578;53.450;15.496;2022-07-03T18:36:51;4.53;;;0.50;;
25721;SDS011;13578;53.450;15.496;2022-07-03T18:39:53;5.13;;;0.50;;
25721;SDS011;13578;53.450;15.496;2022-07-03T18:42:56;3.67;;;0.40;;
25721;SDS011;13578;53.450;15.496;2022-07-03T18:45:57;3.10;;;0.47;;
25721;SDS011;13578;53.450;15.496;2022-07-03T18:48:58;6.78;;;0.40;;
25721;SDS011;13578;53.450;15.496;2022-07-03T18:52:00;2.50;;;0.40;;
25721;SDS011;13578;53.450;15.496;2022-07-03T18:55:07;2.47;;;0.30;;